createdAt,value
2022-10-30T00:01:27.986Z,13.20
2022-10-30T00:03:56.872Z,13.21
2022-10-30T00:06:25.581Z,13.18
2022-10-30T00:08:54.210Z,13.09
2022-10-30T00:11:24.325Z,13.05
2022-10-30T00:13:52.980Z,13.04
2022-10-30T00:16:21.643Z,12.98
2022-10-30T00:18:50.359Z,12.91
2022-10-30T00:21:20.496Z,12.98
2022-10-30T00:23:51.358Z,12.88
2022-10-30T00:26:25.128Z,12.87
2022-10-30T00:28:55.823Z,12.87
2022-10-30T00:31:25.495Z,12.84
2022-10-30T00:33:56.144Z,12.75
2022-10-30T00:36:26.236Z,12.69
2022-10-30T00:38:54.852Z,12.68
2022-10-30T00:41:26.749Z,12.63
2022-10-30T00:43:57.260Z,12.64
2022-10-30T00:46:32.785Z,12.71
2022-10-30T00:49:07.224Z,12.72
2022-10-30T00:51:40.608Z,12.74
2022-10-30T00:54:11.117Z,12.68
2022-10-30T00:56:41.484Z,12.65
2022-10-30T00:59:15.084Z,12.56
2022-10-30T01:01:47.296Z,12.65
2022-10-30T01:04:18.532Z,12.68
2022-10-30T01:06:52.153Z,12.68
2022-10-30T01:09:21.664Z,12.57
2022-10-30T01:11:51.721Z,12.49
2022-10-30T01:14:23.249Z,12.42
2022-10-30T01:17:18.192Z,12.41
2022-10-30T01:22:58.073Z,12.44
2022-10-30T01:25:49.801Z,12.48
2022-10-30T01:28:46.134Z,12.49
2022-10-30T01:31:36.894Z,12.47
2022-10-30T01:34:20.039Z,12.30
2022-10-30T01:37:00.943Z,12.23
2022-10-30T01:39:35.300Z,12.19
2022-10-30T01:42:11.875Z,12.15
2022-10-30T01:44:42.574Z,12.11
2022-10-30T01:47:37.910Z,12.08
2022-10-30T01:50:29.834Z,12.16
2022-10-30T01:53:10.618Z,12.21
2022-10-30T01:55:55.919Z,12.16
2022-10-30T01:58:36.040Z,12.07
2022-10-30T02:01:07.358Z,12.04
2022-10-30T02:03:36.142Z,12.00
2022-10-30T02:06:05.303Z,12.04
2022-10-30T02:08:33.971Z,12.04
2022-10-30T02:11:03.333Z,12.04
2022-10-30T02:13:39.498Z,12.07
2022-10-30T02:16:12.102Z,12.07
2022-10-30T02:21:14.432Z,12.02
2022-10-30T02:23:45.409Z,11.94
2022-10-30T02:26:14.930Z,11.92
2022-10-30T02:28:43.986Z,11.88
2022-10-30T02:31:12.673Z,11.85
2022-10-30T02:33:47.345Z,11.78
2022-10-30T02:36:17.530Z,11.78
2022-10-30T02:38:46.466Z,11.81
2022-10-30T02:41:15.230Z,11.81
2022-10-30T02:43:44.667Z,11.81
2022-10-30T02:46:13.321Z,11.80
2022-10-30T02:48:42.052Z,11.80
2022-10-30T02:51:10.828Z,11.82
2022-10-30T02:53:42.459Z,11.83
2022-10-30T02:56:14.723Z,11.86
2022-10-30T02:58:44.514Z,11.87
2022-10-30T03:01:16.862Z,11.94
2022-10-30T03:03:46.941Z,12.01
2022-10-30T03:06:18.288Z,12.05
2022-10-30T03:08:48.406Z,11.99
2022-10-30T03:11:20.563Z,12.01
2022-10-30T03:13:50.093Z,11.98
2022-10-30T03:16:21.524Z,11.99
2022-10-30T03:18:50.794Z,12.06
2022-10-30T03:21:22.516Z,12.14
2022-10-30T03:23:56.451Z,12.13
2022-10-30T03:26:25.888Z,12.15
2022-10-30T03:29:04.818Z,12.19
2022-10-30T03:31:34.958Z,12.22
2022-10-30T03:34:15.558Z,12.25
2022-10-30T03:36:44.298Z,12.28
2022-10-30T03:39:15.093Z,12.29
2022-10-30T03:41:45.785Z,12.31
2022-10-30T03:44:14.710Z,12.27
2022-10-30T03:46:43.422Z,12.25
2022-10-30T03:49:25.744Z,12.22
2022-10-30T03:51:55.991Z,12.23
2022-10-30T03:54:28.301Z,12.28
2022-10-30T03:56:57.011Z,12.30
2022-10-30T03:59:29.272Z,12.29
2022-10-30T04:02:24.007Z,12.26
2022-10-30T04:04:52.714Z,12.23
2022-10-30T04:07:21.338Z,12.19
2022-10-30T04:09:51.408Z,12.19
2022-10-30T04:12:20.119Z,12.16
2022-10-30T04:14:48.829Z,12.20
2022-10-30T04:17:17.465Z,12.23
2022-10-30T04:19:46.119Z,12.26
2022-10-30T04:22:15.461Z,12.23
2022-10-30T04:24:44.851Z,12.21
2022-10-30T04:27:15.594Z,12.18
2022-10-30T04:29:44.268Z,12.17
2022-10-30T04:32:12.982Z,12.12
2022-10-30T04:34:41.864Z,12.16
2022-10-30T04:37:10.955Z,12.15
2022-10-30T04:39:43.749Z,12.17
2022-10-30T04:42:20.820Z,12.17
2022-10-30T04:44:49.432Z,12.14
2022-10-30T04:47:18.161Z,12.09
2022-10-30T04:49:47.365Z,12.04
2022-10-30T04:52:18.722Z,11.99
2022-10-30T04:54:48.518Z,11.93
2022-10-30T04:57:17.935Z,11.92
2022-10-30T04:59:48.104Z,11.90
2022-10-30T05:02:19.482Z,11.93
2022-10-30T05:04:49.366Z,11.92
2022-10-30T05:07:19.991Z,11.82
2022-10-30T05:09:50.018Z,11.75
2022-10-30T05:12:19.601Z,11.76
2022-10-30T05:15:15.120Z,11.73
2022-10-30T05:17:44.111Z,11.82
2022-10-30T05:20:16.257Z,11.84
2022-10-30T05:23:20.810Z,11.87
2022-10-30T05:25:51.716Z,11.85
2022-10-30T05:28:23.848Z,11.82
2022-10-30T05:31:00.254Z,11.84
2022-10-30T05:33:51.733Z,11.82
2022-10-30T05:36:20.816Z,11.88
2022-10-30T05:38:50.032Z,11.90
2022-10-30T05:41:47.251Z,11.95
2022-10-30T05:44:40.457Z,11.96
2022-10-30T05:47:13.300Z,11.90
2022-10-30T05:50:14.785Z,11.87
2022-10-30T05:52:58.102Z,11.88
2022-10-30T05:55:27.540Z,11.88
2022-10-30T05:58:11.302Z,11.88
2022-10-30T06:00:44.530Z,11.85
2022-10-30T06:03:20.189Z,11.91
2022-10-30T06:05:52.040Z,11.90
2022-10-30T06:08:21.338Z,11.87
2022-10-30T06:10:56.949Z,11.89
2022-10-30T06:13:31.460Z,11.92
2022-10-30T06:16:06.489Z,11.94
2022-10-30T06:18:55.588Z,11.95
2022-10-30T06:21:25.728Z,11.86
2022-10-30T06:24:20.748Z,11.93
2022-10-30T06:27:20.327Z,11.93
2022-10-30T06:29:50.178Z,11.92
2022-10-30T06:32:23.760Z,11.97
2022-10-30T06:34:59.243Z,12.00
2022-10-30T06:37:28.473Z,12.03
2022-10-30T06:39:59.771Z,11.97
2022-10-30T06:42:51.193Z,11.98
2022-10-30T06:45:43.034Z,11.97
2022-10-30T06:48:12.064Z,12.03
2022-10-30T06:50:46.158Z,12.08
2022-10-30T06:53:14.964Z,12.16
2022-10-30T06:55:44.261Z,12.13
2022-10-30T06:58:43.943Z,12.10
2022-10-30T07:01:23.230Z,12.14
2022-10-30T07:04:03.042Z,12.20
2022-10-30T07:06:33.195Z,12.26
2022-10-30T07:09:02.613Z,12.24
2022-10-30T07:11:31.821Z,12.25
2022-10-30T07:14:20.801Z,12.23
2022-10-30T07:16:57.235Z,12.28
2022-10-30T07:19:28.588Z,12.25
2022-10-30T07:22:08.073Z,12.23
2022-10-30T07:24:42.764Z,12.26
2022-10-30T07:27:44.839Z,12.34
2022-10-30T07:30:33.817Z,12.43
2022-10-30T07:33:23.297Z,12.47
2022-10-30T07:36:03.200Z,12.56
2022-10-30T07:39:09.772Z,12.66
2022-10-30T07:41:49.778Z,12.76
2022-10-30T07:44:39.541Z,12.87
2022-10-30T07:47:34.565Z,12.96
2022-10-30T07:50:14.407Z,13.02
2022-10-30T07:52:43.248Z,13.05
2022-10-30T07:55:17.299Z,13.08
2022-10-30T07:57:46.324Z,13.08
2022-10-30T08:00:38.412Z,13.12
2022-10-30T08:03:17.575Z,13.15
2022-10-30T08:05:58.402Z,13.20
2022-10-30T08:08:39.070Z,13.26
2022-10-30T08:11:26.787Z,13.32
2022-10-30T08:13:56.448Z,13.36
2022-10-30T08:16:25.676Z,13.39
2022-10-30T08:18:55.491Z,13.48
2022-10-30T08:21:29.353Z,13.55
2022-10-30T08:24:01.719Z,13.63
2022-10-30T08:26:49.375Z,13.66
2022-10-30T08:29:23.296Z,13.69
2022-10-30T08:31:55.999Z,13.72
2022-10-30T08:34:47.585Z,13.80
2022-10-30T08:37:35.377Z,13.88
2022-10-30T08:40:09.799Z,14.01
2022-10-30T08:42:55.224Z,14.16
2022-10-30T08:45:31.258Z,14.30
2022-10-30T08:48:17.136Z,14.51
2022-10-30T08:50:51.314Z,14.72
2022-10-30T08:53:36.871Z,14.92
2022-10-30T08:56:20.257Z,15.17
2022-10-30T08:59:23.785Z,15.46
2022-10-30T09:01:58.096Z,15.55
2022-10-30T09:04:50.633Z,15.55
2022-10-30T09:07:46.376Z,15.60
2022-10-30T09:10:39.155Z,15.79
2022-10-30T09:13:11.960Z,15.97
2022-10-30T09:15:52.694Z,16.19
2022-10-30T09:19:39.029Z,16.49
2022-10-30T09:27:53.451Z,16.73
2022-10-30T09:30:28.811Z,16.57
2022-10-30T09:33:14.871Z,16.48
2022-10-30T09:36:44.434Z,16.39
2022-10-30T09:39:24.092Z,16.28
2022-10-30T09:42:44.323Z,16.20
2022-10-30T09:45:51.501Z,16.12
2022-10-30T09:49:02.881Z,16.07
2022-10-30T09:52:05.174Z,16.09
2022-10-30T09:54:54.089Z,16.16
2022-10-30T09:57:45.791Z,16.18
2022-10-30T10:01:46.969Z,16.16
2022-10-30T10:05:17.905Z,16.10
2022-10-30T10:09:43.278Z,16.08
2022-10-30T10:13:43.707Z,16.06
2022-10-30T10:21:00.000Z,16.16
2022-10-30T10:23:49.572Z,16.20
2022-10-30T10:26:48.131Z,16.24
2022-10-30T10:29:43.351Z,16.32
2022-10-30T10:33:15.492Z,16.40
2022-10-30T10:36:32.566Z,16.45
2022-10-30T10:39:40.850Z,16.48
2022-10-30T10:42:29.553Z,16.48
2022-10-30T10:45:32.846Z,16.51
2022-10-30T10:52:27.935Z,16.54
2022-10-30T10:55:06.354Z,16.56
2022-10-30T10:57:43.779Z,16.62
2022-10-30T11:00:21.591Z,16.65
2022-10-30T11:03:05.394Z,16.73
2022-10-30T11:06:29.698Z,16.80
2022-10-30T11:09:32.241Z,16.87
2022-10-30T11:12:15.283Z,16.95
2022-10-30T11:14:48.855Z,17.00
2022-10-30T11:17:54.645Z,17.06
2022-10-30T11:21:06.901Z,17.11
2022-10-30T11:23:48.965Z,17.16
2022-10-30T11:26:57.186Z,17.17
2022-10-30T11:29:37.389Z,17.19
2022-10-30T11:32:19.603Z,17.19
2022-10-30T11:40:32.982Z,17.37
2022-10-30T11:43:06.412Z,17.42
2022-10-30T11:45:40.932Z,17.47
2022-10-30T11:48:23.236Z,17.49
2022-10-30T11:50:56.432Z,17.53
2022-10-30T11:58:25.223Z,17.58
2022-10-30T12:05:44.897Z,17.55
2022-10-30T12:09:41.752Z,17.54
2022-10-30T12:12:16.666Z,17.48
2022-10-30T12:15:11.404Z,17.47
2022-10-30T12:18:21.405Z,17.46
2022-10-30T12:20:59.073Z,17.48
2022-10-30T12:28:22.988Z,17.51
2022-10-30T12:31:00.095Z,17.52
2022-10-30T12:33:36.567Z,17.54
2022-10-30T12:36:12.395Z,17.56
2022-10-30T12:38:51.745Z,17.55
2022-10-30T12:41:26.498Z,17.56
2022-10-30T12:44:06.051Z,17.57
2022-10-30T12:46:47.246Z,17.55
2022-10-30T12:49:30.628Z,17.57
2022-10-30T12:52:20.662Z,17.59
2022-10-30T12:54:56.275Z,17.60
2022-10-30T12:57:30.624Z,17.57
2022-10-30T13:00:06.256Z,17.55
2022-10-30T13:02:47.743Z,17.57
2022-10-30T13:06:54.389Z,17.59
2022-10-30T13:09:34.092Z,17.57
2022-10-30T13:12:10.796Z,17.55
2022-10-30T13:15:38.651Z,17.53
2022-10-30T13:18:18.896Z,17.51
2022-10-30T13:21:13.668Z,17.49
2022-10-30T13:23:53.255Z,17.47
2022-10-30T13:26:35.276Z,17.45
2022-10-30T13:29:18.167Z,17.43
2022-10-30T13:32:13.975Z,17.39
2022-10-30T13:34:58.098Z,17.36
2022-10-30T13:37:38.115Z,17.36
2022-10-30T13:40:27.387Z,17.35
2022-10-30T13:43:15.705Z,17.33
2022-10-30T13:46:24.735Z,17.31
2022-10-30T13:49:26.530Z,17.28
2022-10-30T13:52:23.498Z,17.27
2022-10-30T14:00:00.123Z,17.22
2022-10-30T14:02:49.616Z,17.21
2022-10-30T14:05:39.116Z,17.19
2022-10-30T14:08:22.239Z,17.16
2022-10-30T14:15:45.511Z,17.11
2022-10-30T14:22:33.013Z,17.06
2022-10-30T14:25:14.780Z,17.04
2022-10-30T14:27:43.911Z,17.03
2022-10-30T14:30:22.252Z,17.01
2022-10-30T14:32:53.338Z,16.98
2022-10-30T14:36:46.799Z,16.96
2022-10-30T14:39:31.857Z,16.92
2022-10-30T14:42:22.243Z,16.89
2022-10-30T14:45:17.075Z,16.86
2022-10-30T14:48:00.948Z,16.83
2022-10-30T14:51:45.600Z,16.81
2022-10-30T14:54:26.276Z,16.76
2022-10-30T14:56:55.652Z,16.75
2022-10-30T14:59:35.143Z,16.72
2022-10-30T15:07:25.870Z,16.62
2022-10-30T15:10:32.798Z,16.58
2022-10-30T15:13:16.514Z,16.52
2022-10-30T15:18:55.940Z,16.41
2022-10-30T15:21:29.668Z,16.36
2022-10-30T15:24:02.523Z,16.33
2022-10-30T15:26:37.845Z,16.28
2022-10-30T15:29:13.664Z,16.24
2022-10-30T15:31:42.709Z,16.20
2022-10-30T15:34:24.133Z,16.10
2022-10-30T15:36:53.186Z,16.08
2022-10-30T15:39:21.914Z,16.05
2022-10-30T15:42:01.147Z,16.00
2022-10-30T15:44:34.565Z,15.95
2022-10-30T15:47:13.771Z,15.87
2022-10-30T15:49:51.585Z,15.84
2022-10-30T15:52:24.736Z,15.76
2022-10-30T15:55:00.898Z,15.70
2022-10-30T15:58:02.996Z,15.63
2022-10-30T16:00:27.193Z,15.54
2022-10-30T16:03:08.877Z,15.51
2022-10-30T16:05:40.106Z,15.47
2022-10-30T16:08:16.887Z,15.42
2022-10-30T16:10:47.636Z,15.37
2022-10-30T16:13:23.373Z,15.29
2022-10-30T16:15:53.502Z,15.27
2022-10-30T16:18:27.507Z,15.20
2022-10-30T16:21:03.778Z,15.10
2022-10-30T16:23:39.946Z,15.08
2022-10-30T16:26:33.988Z,15.06
2022-10-30T16:29:22.118Z,14.98
2022-10-30T16:31:56.253Z,14.92
2022-10-30T16:34:32.225Z,14.86
2022-10-30T16:37:05.504Z,14.81
2022-10-30T16:39:36.224Z,14.74
2022-10-30T16:42:05.698Z,14.73
2022-10-30T16:44:37.162Z,14.67
2022-10-30T16:47:23.276Z,14.64
2022-10-30T16:49:58.814Z,14.62
2022-10-30T16:52:35.711Z,14.60
2022-10-30T16:55:11.108Z,14.58
2022-10-30T16:57:47.096Z,14.52
2022-10-30T17:00:25.956Z,14.49
2022-10-30T17:03:00.453Z,14.42
2022-10-30T17:05:32.780Z,14.37
2022-10-30T17:08:09.831Z,14.44
2022-10-30T17:10:57.465Z,14.33
2022-10-30T17:14:04.739Z,14.28
2022-10-30T17:16:44.183Z,14.21
2022-10-30T17:19:48.396Z,14.18
2022-10-30T17:22:22.110Z,14.15
2022-10-30T17:24:54.096Z,14.06
2022-10-30T17:27:51.510Z,14.08
2022-10-30T17:30:38.013Z,14.11
2022-10-30T17:33:28.049Z,14.15
2022-10-30T17:36:00.366Z,14.13
2022-10-30T17:38:29.912Z,14.06
2022-10-30T17:41:01.686Z,14.02
2022-10-30T17:43:36.317Z,14.04
2022-10-30T17:46:06.739Z,13.91
2022-10-30T17:48:44.051Z,13.85
2022-10-30T17:51:19.351Z,13.77
2022-10-30T17:54:26.342Z,13.78
2022-10-30T17:56:58.641Z,13.79
2022-10-30T17:59:27.233Z,13.79
2022-10-30T18:01:55.945Z,13.72
2022-10-30T18:04:24.823Z,13.73
2022-10-30T18:06:56.197Z,13.75
2022-10-30T18:09:30.411Z,13.63
2022-10-30T18:12:00.614Z,13.65
2022-10-30T18:14:29.723Z,13.57
2022-10-30T18:16:58.634Z,13.51
2022-10-30T18:19:27.409Z,13.48
2022-10-30T18:21:56.531Z,13.51
2022-10-30T18:24:25.701Z,13.40
2022-10-30T18:26:55.060Z,13.42
2022-10-30T18:29:26.257Z,13.37
2022-10-30T18:31:57.316Z,13.36
2022-10-30T18:34:27.382Z,13.37
2022-10-30T18:36:58.381Z,13.37
2022-10-30T18:39:27.465Z,13.33
2022-10-30T18:41:56.576Z,13.25
2022-10-30T18:44:27.035Z,13.20
2022-10-30T18:47:02.486Z,13.19
2022-10-30T18:49:33.492Z,13.24
2022-10-30T18:52:03.562Z,13.27
2022-10-30T18:54:33.275Z,13.27
2022-10-30T18:57:02.015Z,13.25
2022-10-30T18:59:32.124Z,13.17
2022-10-30T19:02:02.230Z,13.11
2022-10-30T19:04:31.145Z,13.08
2022-10-30T19:07:00.477Z,13.12
2022-10-30T19:09:29.247Z,13.14
2022-10-30T19:11:58.002Z,13.17
2022-10-30T19:14:28.159Z,13.12
2022-10-30T19:16:58.420Z,13.06
2022-10-30T19:19:27.076Z,12.98
2022-10-30T19:21:55.839Z,12.95
2022-10-30T19:24:24.534Z,12.92
2022-10-30T19:26:53.525Z,12.89
2022-10-30T19:29:22.258Z,12.88
2022-10-30T19:31:50.866Z,12.81
2022-10-30T19:34:21.153Z,12.77
2022-10-30T19:41:55.662Z,12.70
2022-10-30T19:44:23.919Z,12.68
2022-10-30T19:46:54.603Z,12.67
2022-10-30T19:49:23.873Z,12.66
2022-10-30T19:51:52.778Z,12.68
2022-10-30T19:54:23.761Z,12.58
2022-10-30T19:56:53.158Z,12.51
2022-10-30T20:04:20.414Z,12.47
2022-10-30T20:06:49.197Z,12.42
2022-10-30T20:09:17.833Z,12.37
2022-10-30T20:11:47.185Z,12.42
2022-10-30T20:14:15.735Z,12.39
2022-10-30T20:16:43.898Z,12.38
2022-10-30T20:19:42.929Z,12.38
2022-10-30T20:24:49.488Z,12.37
2022-10-30T20:27:17.037Z,12.39
2022-10-30T20:29:44.410Z,12.37
2022-10-30T20:32:12.232Z,12.38
2022-10-30T20:34:39.751Z,12.34
2022-10-30T20:37:09.823Z,12.30
2022-10-30T20:39:38.885Z,12.20
2022-10-30T20:42:12.649Z,12.19
2022-10-30T20:44:41.713Z,12.18
2022-10-30T20:47:10.672Z,12.20
2022-10-30T20:49:39.480Z,12.16
2022-10-30T20:52:08.197Z,12.10
2022-10-30T20:54:36.865Z,12.10
2022-10-30T20:57:05.702Z,12.17
2022-10-30T20:59:36.028Z,12.12
2022-10-30T21:02:05.151Z,12.07
2022-10-30T21:04:34.016Z,12.07
2022-10-30T21:07:02.747Z,12.10
2022-10-30T21:09:31.516Z,12.14
2022-10-30T21:12:00.225Z,12.07
2022-10-30T21:14:28.826Z,12.07
2022-10-30T21:16:58.890Z,12.12
2022-10-30T21:19:27.579Z,12.15
2022-10-30T21:21:56.154Z,12.08
2022-10-30T21:24:24.820Z,12.01
2022-10-30T21:26:53.402Z,12.06
2022-10-30T21:29:23.258Z,12.10
2022-10-30T21:31:52.202Z,12.01
2022-10-30T21:34:22.181Z,12.00
2022-10-30T21:36:50.786Z,11.99
2022-10-30T21:39:19.471Z,11.99
2022-10-30T21:41:48.366Z,11.95
2022-10-30T21:44:17.135Z,11.97
2022-10-30T21:46:45.848Z,11.99
2022-10-30T21:49:16.503Z,11.89
2022-10-30T21:51:48.667Z,11.82
2022-10-30T21:54:18.297Z,11.78
2022-10-30T21:56:47.944Z,11.83
2022-10-30T21:59:17.011Z,11.86
2022-10-30T22:01:46.596Z,11.89
2022-10-30T22:04:15.571Z,11.92
2022-10-30T22:06:46.678Z,11.92
2022-10-30T22:09:18.651Z,11.90
2022-10-30T22:11:47.343Z,11.90
2022-10-30T22:14:15.898Z,11.89
2022-10-30T22:16:45.285Z,11.86
2022-10-30T22:19:13.959Z,11.80
2022-10-30T22:21:42.668Z,11.75
2022-10-30T22:24:13.788Z,11.74
2022-10-30T22:26:42.386Z,11.77
2022-10-30T22:29:11.051Z,11.72
2022-10-30T22:31:39.692Z,11.68
2022-10-30T22:34:08.304Z,11.68
2022-10-30T22:36:37.016Z,11.68
2022-10-30T22:39:09.910Z,11.66
2022-10-30T22:41:41.025Z,11.66
2022-10-30T22:44:15.123Z,11.61
2022-10-30T22:46:43.798Z,11.58
2022-10-30T22:49:12.389Z,11.53
2022-10-30T22:51:41.470Z,11.53
2022-10-30T22:54:13.366Z,11.52
2022-10-30T22:56:43.990Z,11.46
2022-10-30T22:59:14.864Z,11.50
2022-10-30T23:01:44.289Z,11.51
2022-10-30T23:04:16.130Z,11.53
2022-10-30T23:06:46.036Z,11.54
2022-10-30T23:09:19.603Z,11.51
2022-10-30T23:11:50.328Z,11.44
2022-10-30T23:14:19.084Z,11.45
2022-10-30T23:16:47.852Z,11.47
2022-10-30T23:19:16.544Z,11.47
2022-10-30T23:21:45.238Z,11.39
2022-10-30T23:24:15.805Z,11.41
2022-10-30T23:26:44.417Z,11.47
2022-10-30T23:29:14.491Z,11.52
2022-10-30T23:31:44.045Z,11.45
2022-10-30T23:34:17.102Z,11.47
2022-10-30T23:36:46.400Z,11.46
2022-10-30T23:39:18.254Z,11.46
2022-10-30T23:41:47.369Z,11.46
2022-10-30T23:44:18.015Z,11.44
2022-10-30T23:46:46.763Z,11.46
2022-10-30T23:49:15.445Z,11.43
2022-10-30T23:51:44.045Z,11.40
2022-10-30T23:54:12.882Z,11.32
2022-10-30T23:56:42.599Z,11.32
2022-10-30T23:59:11.703Z,11.32
